LEAS/OVD METAR and TAF weather

Enter ICAO airport designator
Station Type Date Time Source
LEAS METAR 2021/09/28 04:00 UTC NOAA

LEAS 280400Z 21004KT 9999 FEW028 BKN056 15/12 Q1022 NOSIG


Station Type Date Time Source
LEAS Decoded METAR 2021/09/28 04:00 UTC NOAA

Asturias / Aviles, Spain (LEAS) 43-33N 006-02W 130M
Sep 28, 2021 - 12:00 AM EDT / 2021.09.28 0400 UTC
Wind: from the SSW (210 degrees) at 5 MPH (4 KT):0
Visibility: greater than 7 mile(s):0
Sky conditions: mostly cloudy
Temperature: 59 F (15 C)
Dew Point: 53 F (12 C)
Relative Humidity: 82%
Pressure (altimeter): 30.18 in. Hg (1022 hPa)
ob: LEAS 280400Z 21004KT 9999 FEW028 BKN056 15/12 Q1022 NOSIG
cycle: 4

Station Type Date Time Source
LEAS TAF 2021/09/28 03:27 UTC NOAA

TAF TAF LEAS 280200Z 2803/2903 VRB05KT 9999 FEW015 SCT040 TX19/2814Z TN12/2806Z PROB30
TEMPO 2803/2807 3000 BR BKN010 PROB40
TEMPO 2811/2818 30010KT

Example: see airport list